sensor_id;sensor_type;location;lat;lon;timestamp;P1;durP1;ratioP1;P2;durP2;ratioP2
17570;SDS011;8903;52.220;20.978;2023-02-01T00:02:06;16.03;;;12.97;;
17570;SDS011;8903;52.220;20.978;2023-02-01T00:04:33;19.93;;;12.20;;
17570;SDS011;8903;52.220;20.978;2023-02-01T00:07:01;20.53;;;13.07;;
17570;SDS011;8903;52.220;20.978;2023-02-01T00:09:28;17.90;;;12.10;;
17570;SDS011;8903;52.220;20.978;2023-02-01T00:11:55;20.30;;;13.47;;
17570;SDS011;8903;52.220;20.978;2023-02-01T00:14:26;15.50;;;11.20;;
17570;SDS011;8903;52.220;20.978;2023-02-01T00:16:53;17.13;;;11.60;;
17570;SDS011;8903;52.220;20.978;2023-02-01T00:19:20;16.70;;;10.40;;
17570;SDS011;8903;52.220;20.978;2023-02-01T00:21:47;17.70;;;9.73;;
17570;SDS011;8903;52.220;20.978;2023-02-01T00:24:15;16.13;;;10.07;;
17570;SDS011;8903;52.220;20.978;2023-02-01T00:26:42;15.93;;;10.53;;
17570;SDS011;8903;52.220;20.978;2023-02-01T00:29:10;11.60;;;9.60;;
17570;SDS011;8903;52.220;20.978;2023-02-01T00:31:39;11.93;;;9.00;;
17570;SDS011;8903;52.220;20.978;2023-02-01T00:34:07;14.17;;;9.33;;
17570;SDS011;8903;52.220;20.978;2023-02-01T00:36:35;12.80;;;8.10;;
17570;SDS011;8903;52.220;20.978;2023-02-01T00:39:02;10.30;;;8.00;;
17570;SDS011;8903;52.220;20.978;2023-02-01T00:41:29;10.10;;;6.23;;
17570;SDS011;8903;52.220;20.978;2023-02-01T00:43:57;9.63;;;5.53;;
17570;SDS011;8903;52.220;20.978;2023-02-01T00:46:24;7.40;;;5.90;;
17570;SDS011;8903;52.220;20.978;2023-02-01T00:48:53;7.17;;;4.57;;
17570;SDS011;8903;52.220;20.978;2023-02-01T00:51:21;6.83;;;5.40;;
17570;SDS011;8903;52.220;20.978;2023-02-01T00:53:49;5.73;;;3.87;;
17570;SDS011;8903;52.220;20.978;2023-02-01T00:56:16;5.00;;;3.57;;
17570;SDS011;8903;52.220;20.978;2023-02-01T00:58:43;5.40;;;4.50;;
17570;SDS011;8903;52.220;20.978;2023-02-01T01:01:12;10.80;;;4.40;;
17570;SDS011;8903;52.220;20.978;2023-02-01T01:03:40;6.37;;;3.30;;
17570;SDS011;8903;52.220;20.978;2023-02-01T01:06:10;4.93;;;3.80;;
17570;SDS011;8903;52.220;20.978;2023-02-01T01:08:37;4.77;;;2.80;;
17570;SDS011;8903;52.220;20.978;2023-02-01T01:11:05;3.70;;;2.50;;
17570;SDS011;8903;52.220;20.978;2023-02-01T01:13:33;3.57;;;2.43;;
17570;SDS011;8903;52.220;20.978;2023-02-01T01:16:00;6.77;;;3.03;;
17570;SDS011;8903;52.220;20.978;2023-02-01T01:18:28;5.40;;;2.33;;
17570;SDS011;8903;52.220;20.978;2023-02-01T01:20:56;2.33;;;2.10;;
17570;SDS011;8903;52.220;20.978;2023-02-01T01:23:25;4.30;;;1.80;;
17570;SDS011;8903;52.220;20.978;2023-02-01T01:25:52;5.80;;;1.80;;
17570;SDS011;8903;52.220;20.978;2023-02-01T01:28:19;7.20;;;1.47;;
17570;SDS011;8903;52.220;20.978;2023-02-01T01:30:47;3.23;;;1.17;;
17570;SDS011;8903;52.220;20.978;2023-02-01T01:33:14;9.50;;;1.60;;
17570;SDS011;8903;52.220;20.978;2023-02-01T01:35:41;4.03;;;2.10;;
17570;SDS011;8903;52.220;20.978;2023-02-01T01:38:09;3.50;;;1.67;;
17570;SDS011;8903;52.220;20.978;2023-02-01T01:40:38;3.43;;;2.10;;
17570;SDS011;8903;52.220;20.978;2023-02-01T01:43:11;3.30;;;1.83;;
17570;SDS011;8903;52.220;20.978;2023-02-01T01:45:39;7.53;;;2.27;;
17570;SDS011;8903;52.220;20.978;2023-02-01T01:48:08;7.50;;;2.47;;
17570;SDS011;8903;52.220;20.978;2023-02-01T01:50:38;14.10;;;2.40;;
17570;SDS011;8903;52.220;20.978;2023-02-01T01:53:07;8.57;;;2.60;;
17570;SDS011;8903;52.220;20.978;2023-02-01T01:55:35;4.37;;;2.27;;
17570;SDS011;8903;52.220;20.978;2023-02-01T01:58:06;5.33;;;2.00;;
17570;SDS011;8903;52.220;20.978;2023-02-01T02:00:34;4.83;;;2.10;;
17570;SDS011;8903;52.220;20.978;2023-02-01T02:03:03;8.50;;;2.10;;
17570;SDS011;8903;52.220;20.978;2023-02-01T02:05:34;5.00;;;2.07;;
17570;SDS011;8903;52.220;20.978;2023-02-01T02:08:01;3.73;;;2.50;;
17570;SDS011;8903;52.220;20.978;2023-02-01T02:10:29;4.80;;;2.10;;
17570;SDS011;8903;52.220;20.978;2023-02-01T02:13:11;7.07;;;1.90;;
17570;SDS011;8903;52.220;20.978;2023-02-01T02:15:41;10.67;;;2.80;;
17570;SDS011;8903;52.220;20.978;2023-02-01T02:18:10;3.17;;;2.20;;
17570;SDS011;8903;52.220;20.978;2023-02-01T02:20:45;6.97;;;3.50;;
17570;SDS011;8903;52.220;20.978;2023-02-01T02:23:25;6.90;;;3.60;;
17570;SDS011;8903;52.220;20.978;2023-02-01T02:29:00;3.83;;;2.63;;
17570;SDS011;8903;52.220;20.978;2023-02-01T02:31:40;8.40;;;3.87;;
17570;SDS011;8903;52.220;20.978;2023-02-01T02:34:16;10.10;;;3.13;;
17570;SDS011;8903;52.220;20.978;2023-02-01T02:36:48;11.83;;;3.43;;
17570;SDS011;8903;52.220;20.978;2023-02-01T02:39:21;16.27;;;5.73;;
17570;SDS011;8903;52.220;20.978;2023-02-01T02:41:50;8.10;;;4.00;;
17570;SDS011;8903;52.220;20.978;2023-02-01T02:44:39;10.00;;;3.30;;
17570;SDS011;8903;52.220;20.978;2023-02-01T02:47:27;7.90;;;3.37;;
17570;SDS011;8903;52.220;20.978;2023-02-01T02:49:58;10.73;;;3.10;;
17570;SDS011;8903;52.220;20.978;2023-02-01T02:52:45;5.90;;;3.80;;
17570;SDS011;8903;52.220;20.978;2023-02-01T02:55:31;8.20;;;2.83;;
17570;SDS011;8903;52.220;20.978;2023-02-01T02:57:59;11.00;;;4.07;;
17570;SDS011;8903;52.220;20.978;2023-02-01T03:00:44;16.30;;;4.50;;
17570;SDS011;8903;52.220;20.978;2023-02-01T03:03:30;5.07;;;3.13;;
17570;SDS011;8903;52.220;20.978;2023-02-01T03:06:16;8.13;;;3.73;;
17570;SDS011;8903;52.220;20.978;2023-02-01T03:08:45;17.17;;;2.93;;
17570;SDS011;8903;52.220;20.978;2023-02-01T03:11:13;8.93;;;3.10;;
17570;SDS011;8903;52.220;20.978;2023-02-01T03:13:42;8.90;;;2.80;;
17570;SDS011;8903;52.220;20.978;2023-02-01T03:16:12;10.37;;;3.83;;
17570;SDS011;8903;52.220;20.978;2023-02-01T03:18:42;10.90;;;3.73;;
17570;SDS011;8903;52.220;20.978;2023-02-01T03:21:12;19.50;;;3.50;;
17570;SDS011;8903;52.220;20.978;2023-02-01T03:23:42;10.77;;;4.57;;
17570;SDS011;8903;52.220;20.978;2023-02-01T03:26:11;12.03;;;3.77;;
17570;SDS011;8903;52.220;20.978;2023-02-01T03:28:41;7.67;;;2.40;;
17570;SDS011;8903;52.220;20.978;2023-02-01T03:31:09;9.07;;;3.10;;
17570;SDS011;8903;52.220;20.978;2023-02-01T03:33:39;11.70;;;3.73;;
17570;SDS011;8903;52.220;20.978;2023-02-01T03:36:10;6.13;;;3.10;;
17570;SDS011;8903;52.220;20.978;2023-02-01T03:38:40;14.00;;;3.70;;
17570;SDS011;8903;52.220;20.978;2023-02-01T03:41:16;10.20;;;3.20;;
17570;SDS011;8903;52.220;20.978;2023-02-01T03:43:48;9.57;;;4.13;;
17570;SDS011;8903;52.220;20.978;2023-02-01T03:46:19;11.67;;;3.83;;
17570;SDS011;8903;52.220;20.978;2023-02-01T03:48:48;13.80;;;5.10;;
17570;SDS011;8903;52.220;20.978;2023-02-01T03:51:17;9.73;;;5.13;;
17570;SDS011;8903;52.220;20.978;2023-02-01T03:53:46;11.63;;;3.93;;
17570;SDS011;8903;52.220;20.978;2023-02-01T03:56:17;15.37;;;4.20;;
17570;SDS011;8903;52.220;20.978;2023-02-01T03:58:45;13.97;;;4.43;;
17570;SDS011;8903;52.220;20.978;2023-02-01T04:01:28;14.10;;;3.53;;
17570;SDS011;8903;52.220;20.978;2023-02-01T04:03:56;17.83;;;5.60;;
17570;SDS011;8903;52.220;20.978;2023-02-01T04:06:24;9.70;;;4.50;;
17570;SDS011;8903;52.220;20.978;2023-02-01T04:08:54;10.00;;;5.07;;
17570;SDS011;8903;52.220;20.978;2023-02-01T04:11:22;17.23;;;4.33;;
17570;SDS011;8903;52.220;20.978;2023-02-01T04:13:50;10.17;;;3.53;;
17570;SDS011;8903;52.220;20.978;2023-02-01T04:16:17;13.63;;;4.53;;
17570;SDS011;8903;52.220;20.978;2023-02-01T04:18:44;13.57;;;4.40;;
17570;SDS011;8903;52.220;20.978;2023-02-01T04:21:11;8.67;;;3.67;;
17570;SDS011;8903;52.220;20.978;2023-02-01T04:23:39;22.30;;;4.27;;
17570;SDS011;8903;52.220;20.978;2023-02-01T04:26:06;11.60;;;4.10;;
17570;SDS011;8903;52.220;20.978;2023-02-01T04:28:34;8.10;;;5.00;;
17570;SDS011;8903;52.220;20.978;2023-02-01T04:31:02;15.67;;;5.23;;
17570;SDS011;8903;52.220;20.978;2023-02-01T04:33:29;11.97;;;3.37;;
17570;SDS011;8903;52.220;20.978;2023-02-01T04:35:56;12.10;;;3.67;;
17570;SDS011;8903;52.220;20.978;2023-02-01T04:38:24;13.30;;;3.77;;
17570;SDS011;8903;52.220;20.978;2023-02-01T04:40:52;10.90;;;3.57;;
17570;SDS011;8903;52.220;20.978;2023-02-01T04:43:19;12.53;;;3.20;;
17570;SDS011;8903;52.220;20.978;2023-02-01T04:45:48;11.13;;;3.57;;
17570;SDS011;8903;52.220;20.978;2023-02-01T04:48:16;7.83;;;2.90;;
17570;SDS011;8903;52.220;20.978;2023-02-01T04:50:43;9.37;;;3.23;;
17570;SDS011;8903;52.220;20.978;2023-02-01T04:53:12;15.90;;;3.93;;
17570;SDS011;8903;52.220;20.978;2023-02-01T04:55:40;9.80;;;4.07;;
17570;SDS011;8903;52.220;20.978;2023-02-01T04:58:07;11.90;;;3.80;;
17570;SDS011;8903;52.220;20.978;2023-02-01T05:00:35;14.93;;;4.23;;
17570;SDS011;8903;52.220;20.978;2023-02-01T05:03:04;17.90;;;3.20;;
17570;SDS011;8903;52.220;20.978;2023-02-01T05:05:31;11.83;;;3.00;;
17570;SDS011;8903;52.220;20.978;2023-02-01T05:07:58;5.13;;;3.07;;
17570;SDS011;8903;52.220;20.978;2023-02-01T05:10:26;12.23;;;3.50;;
17570;SDS011;8903;52.220;20.978;2023-02-01T05:12:53;15.27;;;4.90;;
17570;SDS011;8903;52.220;20.978;2023-02-01T05:15:38;15.90;;;5.03;;
17570;SDS011;8903;52.220;20.978;2023-02-01T05:18:07;18.60;;;4.03;;
17570;SDS011;8903;52.220;20.978;2023-02-01T05:20:34;12.53;;;3.73;;
17570;SDS011;8903;52.220;20.978;2023-02-01T05:23:01;11.50;;;3.90;;
17570;SDS011;8903;52.220;20.978;2023-02-01T05:25:29;19.37;;;4.70;;
17570;SDS011;8903;52.220;20.978;2023-02-01T05:27:56;16.27;;;5.03;;
17570;SDS011;8903;52.220;20.978;2023-02-01T05:30:23;14.43;;;4.00;;
17570;SDS011;8903;52.220;20.978;2023-02-01T05:32:50;10.30;;;2.60;;
17570;SDS011;8903;52.220;20.978;2023-02-01T05:35:19;10.27;;;3.27;;
17570;SDS011;8903;52.220;20.978;2023-02-01T05:37:47;16.53;;;3.50;;
17570;SDS011;8903;52.220;20.978;2023-02-01T05:40:14;11.73;;;3.73;;
17570;SDS011;8903;52.220;20.978;2023-02-01T05:42:41;17.77;;;3.40;;
17570;SDS011;8903;52.220;20.978;2023-02-01T05:45:09;10.97;;;3.90;;
17570;SDS011;8903;52.220;20.978;2023-02-01T05:47:36;10.10;;;3.07;;
17570;SDS011;8903;52.220;20.978;2023-02-01T05:50:04;14.20;;;4.00;;
17570;SDS011;8903;52.220;20.978;2023-02-01T05:52:33;16.00;;;3.73;;
17570;SDS011;8903;52.220;20.978;2023-02-01T05:55:00;16.43;;;4.40;;
17570;SDS011;8903;52.220;20.978;2023-02-01T05:57:28;21.27;;;4.00;;
17570;SDS011;8903;52.220;20.978;2023-02-01T05:59:55;12.87;;;4.00;;
17570;SDS011;8903;52.220;20.978;2023-02-01T06:02:23;16.67;;;4.40;;
17570;SDS011;8903;52.220;20.978;2023-02-01T06:04:50;14.13;;;3.50;;
17570;SDS011;8903;52.220;20.978;2023-02-01T06:07:17;19.03;;;3.90;;
17570;SDS011;8903;52.220;20.978;2023-02-01T06:09:48;13.53;;;3.70;;
17570;SDS011;8903;52.220;20.978;2023-02-01T06:12:16;15.93;;;4.73;;
17570;SDS011;8903;52.220;20.978;2023-02-01T06:14:43;11.17;;;3.07;;
17570;SDS011;8903;52.220;20.978;2023-02-01T06:17:10;11.03;;;3.37;;
17570;SDS011;8903;52.220;20.978;2023-02-01T06:19:38;16.93;;;4.50;;
17570;SDS011;8903;52.220;20.978;2023-02-01T06:22:05;14.00;;;5.10;;
17570;SDS011;8903;52.220;20.978;2023-02-01T06:24:33;14.93;;;4.37;;
17570;SDS011;8903;52.220;20.978;2023-02-01T06:27:01;19.77;;;5.20;;
17570;SDS011;8903;52.220;20.978;2023-02-01T06:29:28;8.63;;;3.20;;
17570;SDS011;8903;52.220;20.978;2023-02-01T06:31:56;9.80;;;3.87;;
17570;SDS011;8903;52.220;20.978;2023-02-01T06:34:23;13.10;;;3.57;;
17570;SDS011;8903;52.220;20.978;2023-02-01T06:36:51;19.97;;;4.37;;
17570;SDS011;8903;52.220;20.978;2023-02-01T06:39:18;15.03;;;3.10;;
17570;SDS011;8903;52.220;20.978;2023-02-01T06:41:45;14.10;;;4.00;;
17570;SDS011;8903;52.220;20.978;2023-02-01T06:44:15;13.70;;;3.17;;
17570;SDS011;8903;52.220;20.978;2023-02-01T06:46:42;9.80;;;3.77;;
17570;SDS011;8903;52.220;20.978;2023-02-01T06:49:09;17.13;;;4.93;;
17570;SDS011;8903;52.220;20.978;2023-02-01T06:51:37;10.23;;;3.20;;
17570;SDS011;8903;52.220;20.978;2023-02-01T06:54:04;10.37;;;3.13;;
17570;SDS011;8903;52.220;20.978;2023-02-01T06:56:31;14.37;;;3.73;;
17570;SDS011;8903;52.220;20.978;2023-02-01T06:58:59;10.60;;;3.43;;
17570;SDS011;8903;52.220;20.978;2023-02-01T07:01:28;7.60;;;3.80;;
17570;SDS011;8903;52.220;20.978;2023-02-01T07:03:55;12.57;;;3.20;;
17570;SDS011;8903;52.220;20.978;2023-02-01T07:06:22;13.00;;;3.37;;
17570;SDS011;8903;52.220;20.978;2023-02-01T07:08:49;12.73;;;3.80;;
17570;SDS011;8903;52.220;20.978;2023-02-01T07:11:17;14.93;;;3.57;;
17570;SDS011;8903;52.220;20.978;2023-02-01T07:13:45;8.90;;;3.07;;
17570;SDS011;8903;52.220;20.978;2023-02-01T07:16:13;11.50;;;3.83;;
17570;SDS011;8903;52.220;20.978;2023-02-01T07:18:42;7.33;;;2.87;;
17570;SDS011;8903;52.220;20.978;2023-02-01T07:21:09;12.50;;;4.47;;
17570;SDS011;8903;52.220;20.978;2023-02-01T07:23:36;8.27;;;2.90;;
17570;SDS011;8903;52.220;20.978;2023-02-01T07:26:05;8.17;;;3.47;;
17570;SDS011;8903;52.220;20.978;2023-02-01T07:28:33;18.30;;;4.13;;
17570;SDS011;8903;52.220;20.978;2023-02-01T07:31:04;17.27;;;4.50;;
17570;SDS011;8903;52.220;20.978;2023-02-01T07:33:31;19.70;;;4.23;;
17570;SDS011;8903;52.220;20.978;2023-02-01T07:36:01;18.07;;;4.63;;
17570;SDS011;8903;52.220;20.978;2023-02-01T07:38:29;19.73;;;3.70;;
17570;SDS011;8903;52.220;20.978;2023-02-01T07:40:57;15.80;;;5.13;;
17570;SDS011;8903;52.220;20.978;2023-02-01T07:43:24;11.10;;;3.77;;
17570;SDS011;8903;52.220;20.978;2023-02-01T07:45:52;12.00;;;3.87;;
17570;SDS011;8903;52.220;20.978;2023-02-01T07:48:20;19.87;;;3.97;;
17570;SDS011;8903;52.220;20.978;2023-02-01T07:50:47;14.83;;;4.00;;
17570;SDS011;8903;52.220;20.978;2023-02-01T07:53:16;11.60;;;3.83;;
17570;SDS011;8903;52.220;20.978;2023-02-01T07:55:43;13.67;;;4.27;;
17570;SDS011;8903;52.220;20.978;2023-02-01T07:58:11;15.40;;;4.57;;
17570;SDS011;8903;52.220;20.978;2023-02-01T08:00:38;18.50;;;6.13;;
17570;SDS011;8903;52.220;20.978;2023-02-01T08:03:23;11.17;;;4.70;;
17570;SDS011;8903;52.220;20.978;2023-02-01T08:05:53;15.23;;;3.80;;
17570;SDS011;8903;52.220;20.978;2023-02-01T08:08:22;14.27;;;5.07;;
17570;SDS011;8903;52.220;20.978;2023-02-01T08:10:49;10.73;;;4.13;;
17570;SDS011;8903;52.220;20.978;2023-02-01T08:13:17;17.30;;;4.30;;
17570;SDS011;8903;52.220;20.978;2023-02-01T08:15:44;19.03;;;5.07;;
17570;SDS011;8903;52.220;20.978;2023-02-01T08:18:11;15.40;;;4.77;;
17570;SDS011;8903;52.220;20.978;2023-02-01T08:20:41;12.17;;;3.77;;
17570;SDS011;8903;52.220;20.978;2023-02-01T08:23:10;16.30;;;4.63;;
17570;SDS011;8903;52.220;20.978;2023-02-01T08:25:39;12.23;;;4.73;;
17570;SDS011;8903;52.220;20.978;2023-02-01T08:28:06;29.03;;;4.60;;
17570;SDS011;8903;52.220;20.978;2023-02-01T08:30:34;20.37;;;3.63;;
17570;SDS011;8903;52.220;20.978;2023-02-01T08:33:03;13.33;;;4.03;;
17570;SDS011;8903;52.220;20.978;2023-02-01T08:35:31;17.93;;;3.90;;
17570;SDS011;8903;52.220;20.978;2023-02-01T08:37:59;25.47;;;4.67;;
17570;SDS011;8903;52.220;20.978;2023-02-01T08:40:26;12.63;;;4.53;;
17570;SDS011;8903;52.220;20.978;2023-02-01T08:42:55;16.80;;;5.57;;
17570;SDS011;8903;52.220;20.978;2023-02-01T08:45:24;13.27;;;3.73;;
17570;SDS011;8903;52.220;20.978;2023-02-01T08:47:52;10.63;;;4.87;;
17570;SDS011;8903;52.220;20.978;2023-02-01T08:50:19;11.63;;;4.10;;
17570;SDS011;8903;52.220;20.978;2023-02-01T08:52:47;14.00;;;4.70;;
17570;SDS011;8903;52.220;20.978;2023-02-01T08:55:15;24.23;;;5.20;;
17570;SDS011;8903;52.220;20.978;2023-02-01T08:57:42;9.70;;;4.90;;
17570;SDS011;8903;52.220;20.978;2023-02-01T09:00:12;18.67;;;5.03;;
17570;SDS011;8903;52.220;20.978;2023-02-01T09:02:40;21.13;;;6.13;;
17570;SDS011;8903;52.220;20.978;2023-02-01T09:05:08;14.03;;;4.47;;
17570;SDS011;8903;52.220;20.978;2023-02-01T09:07:35;15.03;;;4.30;;
17570;SDS011;8903;52.220;20.978;2023-02-01T09:10:03;13.97;;;4.00;;
17570;SDS011;8903;52.220;20.978;2023-02-01T09:12:30;11.80;;;5.03;;
17570;SDS011;8903;52.220;20.978;2023-02-01T09:14:58;12.93;;;4.63;;
17570;SDS011;8903;52.220;20.978;2023-02-01T09:17:28;12.80;;;4.50;;
17570;SDS011;8903;52.220;20.978;2023-02-01T09:19:55;21.43;;;6.80;;
17570;SDS011;8903;52.220;20.978;2023-02-01T09:22:23;11.73;;;3.87;;
17570;SDS011;8903;52.220;20.978;2023-02-01T09:24:50;13.90;;;5.07;;
17570;SDS011;8903;52.220;20.978;2023-02-01T09:27:18;10.60;;;5.17;;
17570;SDS011;8903;52.220;20.978;2023-02-01T09:29:46;9.70;;;3.83;;
17570;SDS011;8903;52.220;20.978;2023-02-01T09:32:17;6.07;;;2.67;;
17570;SDS011;8903;52.220;20.978;2023-02-01T09:34:46;10.00;;;3.80;;
17570;SDS011;8903;52.220;20.978;2023-02-01T09:37:13;9.00;;;3.70;;
17570;SDS011;8903;52.220;20.978;2023-02-01T09:39:40;12.57;;;3.77;;
17570;SDS011;8903;52.220;20.978;2023-02-01T09:42:14;17.27;;;4.60;;
17570;SDS011;8903;52.220;20.978;2023-02-01T09:44:49;7.97;;;3.97;;
17570;SDS011;8903;52.220;20.978;2023-02-01T09:47:20;10.53;;;3.27;;
17570;SDS011;8903;52.220;20.978;2023-02-01T09:49:51;16.50;;;4.30;;
17570;SDS011;8903;52.220;20.978;2023-02-01T09:52:20;14.10;;;4.53;;
17570;SDS011;8903;52.220;20.978;2023-02-01T09:54:52;10.90;;;3.80;;
17570;SDS011;8903;52.220;20.978;2023-02-01T09:57:24;10.93;;;4.03;;
17570;SDS011;8903;52.220;20.978;2023-02-01T09:59:53;16.70;;;5.70;;
17570;SDS011;8903;52.220;20.978;2023-02-01T10:02:24;11.80;;;4.77;;
17570;SDS011;8903;52.220;20.978;2023-02-01T10:04:55;10.53;;;4.30;;
17570;SDS011;8903;52.220;20.978;2023-02-01T10:07:26;16.57;;;4.90;;
17570;SDS011;8903;52.220;20.978;2023-02-01T10:09:59;12.20;;;4.10;;
17570;SDS011;8903;52.220;20.978;2023-02-01T10:12:35;9.80;;;3.83;;
17570;SDS011;8903;52.220;20.978;2023-02-01T10:15:09;10.20;;;4.30;;
17570;SDS011;8903;52.220;20.978;2023-02-01T10:17:45;12.70;;;5.63;;
17570;SDS011;8903;52.220;20.978;2023-02-01T10:20:18;15.97;;;4.77;;
17570;SDS011;8903;52.220;20.978;2023-02-01T10:22:51;9.70;;;3.80;;
17570;SDS011;8903;52.220;20.978;2023-02-01T10:25:22;20.20;;;4.40;;
17570;SDS011;8903;52.220;20.978;2023-02-01T10:27:50;13.97;;;4.13;;
17570;SDS011;8903;52.220;20.978;2023-02-01T10:30:19;15.47;;;4.37;;
17570;SDS011;8903;52.220;20.978;2023-02-01T10:32:47;15.70;;;4.87;;
17570;SDS011;8903;52.220;20.978;2023-02-01T10:35:17;8.70;;;4.30;;
17570;SDS011;8903;52.220;20.978;2023-02-01T10:37:46;9.23;;;3.83;;
17570;SDS011;8903;52.220;20.978;2023-02-01T10:40:16;10.90;;;4.00;;
17570;SDS011;8903;52.220;20.978;2023-02-01T10:42:44;14.20;;;4.87;;
17570;SDS011;8903;52.220;20.978;2023-02-01T10:45:13;8.37;;;3.73;;
17570;SDS011;8903;52.220;20.978;2023-02-01T10:47:41;12.40;;;4.50;;
17570;SDS011;8903;52.220;20.978;2023-02-01T10:50:12;10.40;;;4.57;;
17570;SDS011;8903;52.220;20.978;2023-02-01T10:52:42;8.43;;;4.30;;
17570;SDS011;8903;52.220;20.978;2023-02-01T10:57:58;14.47;;;5.07;;
17570;SDS011;8903;52.220;20.978;2023-02-01T11:00:26;15.93;;;5.50;;
17570;SDS011;8903;52.220;20.978;2023-02-01T11:02:54;9.93;;;4.67;;
17570;SDS011;8903;52.220;20.978;2023-02-01T11:05:21;12.30;;;4.60;;
17570;SDS011;8903;52.220;20.978;2023-02-01T11:07:49;11.47;;;5.20;;
17570;SDS011;8903;52.220;20.978;2023-02-01T11:13:01;12.47;;;4.83;;
17570;SDS011;8903;52.220;20.978;2023-02-01T11:15:28;12.67;;;4.77;;
17570;SDS011;8903;52.220;20.978;2023-02-01T11:17:56;13.23;;;5.13;;
17570;SDS011;8903;52.220;20.978;2023-02-01T11:20:36;13.50;;;5.50;;
17570;SDS011;8903;52.220;20.978;2023-02-01T11:23:05;10.67;;;6.63;;
17570;SDS011;8903;52.220;20.978;2023-02-01T11:25:32;14.23;;;4.60;;
17570;SDS011;8903;52.220;20.978;2023-02-01T11:28:04;8.13;;;3.80;;
17570;SDS011;8903;52.220;20.978;2023-02-01T11:30:32;10.90;;;4.33;;
17570;SDS011;8903;52.220;20.978;2023-02-01T11:33:01;11.93;;;4.83;;
17570;SDS011;8903;52.220;20.978;2023-02-01T11:35:30;11.50;;;4.27;;
17570;SDS011;8903;52.220;20.978;2023-02-01T11:37:58;13.40;;;6.13;;
17570;SDS011;8903;52.220;20.978;2023-02-01T11:40:27;13.50;;;5.07;;
17570;SDS011;8903;52.220;20.978;2023-02-01T11:42:55;9.27;;;4.47;;
17570;SDS011;8903;52.220;20.978;2023-02-01T11:45:28;11.73;;;4.10;;
17570;SDS011;8903;52.220;20.978;2023-02-01T11:47:56;11.00;;;4.73;;
17570;SDS011;8903;52.220;20.978;2023-02-01T11:50:26;7.87;;;4.20;;
17570;SDS011;8903;52.220;20.978;2023-02-01T11:53:00;13.10;;;4.87;;
17570;SDS011;8903;52.220;20.978;2023-02-01T11:55:36;9.90;;;4.93;;
17570;SDS011;8903;52.220;20.978;2023-02-01T11:58:10;11.63;;;4.60;;
17570;SDS011;8903;52.220;20.978;2023-02-01T12:00:51;11.27;;;5.20;;
17570;SDS011;8903;52.220;20.978;2023-02-01T12:03:39;15.43;;;5.00;;
17570;SDS011;8903;52.220;20.978;2023-02-01T12:06:11;12.47;;;4.17;;
17570;SDS011;8903;52.220;20.978;2023-02-01T12:08:47;11.53;;;4.70;;
17570;SDS011;8903;52.220;20.978;2023-02-01T12:11:24;17.40;;;5.17;;
17570;SDS011;8903;52.220;20.978;2023-02-01T12:13:55;10.90;;;4.90;;
17570;SDS011;8903;52.220;20.978;2023-02-01T12:16:28;12.67;;;5.93;;
17570;SDS011;8903;52.220;20.978;2023-02-01T12:19:03;13.37;;;5.73;;
17570;SDS011;8903;52.220;20.978;2023-02-01T12:21:39;18.53;;;5.17;;
17570;SDS011;8903;52.220;20.978;2023-02-01T12:24:15;13.03;;;6.13;;
17570;SDS011;8903;52.220;20.978;2023-02-01T12:26:50;20.70;;;6.90;;
17570;SDS011;8903;52.220;20.978;2023-02-01T12:29:24;20.50;;;6.67;;
17570;SDS011;8903;52.220;20.978;2023-02-01T12:31:57;12.90;;;5.97;;
17570;SDS011;8903;52.220;20.978;2023-02-01T12:34:32;19.13;;;6.83;;
17570;SDS011;8903;52.220;20.978;2023-02-01T12:37:05;23.53;;;7.20;;
17570;SDS011;8903;52.220;20.978;2023-02-01T12:39:37;13.47;;;6.77;;
17570;SDS011;8903;52.220;20.978;2023-02-01T12:42:08;15.47;;;6.00;;
17570;SDS011;8903;52.220;20.978;2023-02-01T12:44:40;19.67;;;5.80;;
17570;SDS011;8903;52.220;20.978;2023-02-01T12:47:14;25.07;;;7.00;;
17570;SDS011;8903;52.220;20.978;2023-02-01T12:49:46;19.70;;;5.37;;
17570;SDS011;8903;52.220;20.978;2023-02-01T12:52:15;17.70;;;6.30;;
17570;SDS011;8903;52.220;20.978;2023-02-01T12:54:45;17.07;;;6.40;;
17570;SDS011;8903;52.220;20.978;2023-02-01T12:57:15;9.30;;;4.97;;
17570;SDS011;8903;52.220;20.978;2023-02-01T12:59:44;16.00;;;5.90;;
17570;SDS011;8903;52.220;20.978;2023-02-01T13:02:16;12.20;;;6.13;;
17570;SDS011;8903;52.220;20.978;2023-02-01T13:04:52;15.13;;;6.37;;
17570;SDS011;8903;52.220;20.978;2023-02-01T13:07:21;16.17;;;4.90;;
17570;SDS011;8903;52.220;20.978;2023-02-01T13:09:50;16.97;;;6.00;;
17570;SDS011;8903;52.220;20.978;2023-02-01T13:12:21;13.67;;;4.60;;
17570;SDS011;8903;52.220;20.978;2023-02-01T13:14:49;17.20;;;6.20;;
17570;SDS011;8903;52.220;20.978;2023-02-01T13:17:22;12.93;;;5.43;;
17570;SDS011;8903;52.220;20.978;2023-02-01T13:19:52;10.23;;;5.50;;
17570;SDS011;8903;52.220;20.978;2023-02-01T13:22:21;23.07;;;5.50;;
17570;SDS011;8903;52.220;20.978;2023-02-01T13:24:51;16.13;;;6.00;;
17570;SDS011;8903;52.220;20.978;2023-02-01T13:27:20;13.57;;;5.73;;
17570;SDS011;8903;52.220;20.978;2023-02-01T13:29:52;16.47;;;6.13;;
17570;SDS011;8903;52.220;20.978;2023-02-01T13:32:29;19.80;;;6.33;;
17570;SDS011;8903;52.220;20.978;2023-02-01T13:35:03;24.33;;;6.03;;
17570;SDS011;8903;52.220;20.978;2023-02-01T13:37:43;22.63;;;6.30;;
17570;SDS011;8903;52.220;20.978;2023-02-01T13:40:18;11.83;;;5.57;;
17570;SDS011;8903;52.220;20.978;2023-02-01T13:42:55;12.27;;;5.87;;
17570;SDS011;8903;52.220;20.978;2023-02-01T13:45:23;19.50;;;5.50;;
17570;SDS011;8903;52.220;20.978;2023-02-01T13:47:54;5.53;;;3.23;;
17570;SDS011;8903;52.220;20.978;2023-02-01T13:50:23;8.83;;;4.37;;
17570;SDS011;8903;52.220;20.978;2023-02-01T13:52:52;12.23;;;5.30;;
17570;SDS011;8903;52.220;20.978;2023-02-01T13:55:24;11.10;;;5.03;;
17570;SDS011;8903;52.220;20.978;2023-02-01T13:57:58;5.20;;;3.27;;
17570;SDS011;8903;52.220;20.978;2023-02-01T14:00:27;9.47;;;5.10;;
17570;SDS011;8903;52.220;20.978;2023-02-01T14:03:06;11.30;;;5.57;;
17570;SDS011;8903;52.220;20.978;2023-02-01T14:08:37;10.63;;;5.37;;
17570;SDS011;8903;52.220;20.978;2023-02-01T14:11:05;12.60;;;5.20;;
17570;SDS011;8903;52.220;20.978;2023-02-01T14:13:32;8.10;;;4.80;;
17570;SDS011;8903;52.220;20.978;2023-02-01T14:16:16;7.53;;;4.73;;
17570;SDS011;8903;52.220;20.978;2023-02-01T14:18:54;16.13;;;6.83;;
17570;SDS011;8903;52.220;20.978;2023-02-01T14:21:25;11.10;;;5.80;;
17570;SDS011;8903;52.220;20.978;2023-02-01T14:24:00;10.20;;;5.00;;
17570;SDS011;8903;52.220;20.978;2023-02-01T14:26:40;14.17;;;5.77;;
17570;SDS011;8903;52.220;20.978;2023-02-01T14:29:25;8.17;;;4.80;;
17570;SDS011;8903;52.220;20.978;2023-02-01T14:32:00;20.20;;;6.60;;
17570;SDS011;8903;52.220;20.978;2023-02-01T14:34:34;11.87;;;4.83;;
17570;SDS011;8903;52.220;20.978;2023-02-01T14:37:03;19.73;;;6.17;;
17570;SDS011;8903;52.220;20.978;2023-02-01T14:39:40;15.50;;;5.57;;
17570;SDS011;8903;52.220;20.978;2023-02-01T14:42:19;9.57;;;5.27;;
17570;SDS011;8903;52.220;20.978;2023-02-01T14:44:47;9.80;;;5.47;;
17570;SDS011;8903;52.220;20.978;2023-02-01T14:50:00;10.57;;;4.80;;
17570;SDS011;8903;52.220;20.978;2023-02-01T14:52:30;4.43;;;4.00;;
17570;SDS011;8903;52.220;20.978;2023-02-01T14:55:00;3.87;;;3.13;;
17570;SDS011;8903;52.220;20.978;2023-02-01T14:57:28;11.93;;;4.70;;
17570;SDS011;8903;52.220;20.978;2023-02-01T14:59:59;5.43;;;3.60;;
17570;SDS011;8903;52.220;20.978;2023-02-01T15:02:28;7.80;;;4.53;;
17570;SDS011;8903;52.220;20.978;2023-02-01T15:04:56;8.33;;;4.43;;
17570;SDS011;8903;52.220;20.978;2023-02-01T15:07:25;6.10;;;4.43;;
17570;SDS011;8903;52.220;20.978;2023-02-01T15:09:55;13.00;;;4.90;;